Time;durP1;ratioP1;P1;durP2;ratioP2;P2;SDS_P1;SDS_P2;PMS_P1;PMS_P2;Temp;Humidity;BMP_temperature;BMP_pressure;BME280_temperature;BME280_humidity;BME280_pressure;Samples;Min_cycle;Max_cycle;Signal;HPM_P1;HPM_P2
2022/09/20 00:01:21;;;;;;;4.57;2.47;;;8.30;99.90;;;;;;5036418;28;20167;-86
2022/09/20 00:03:50;;;;;;;4.63;2.63;;;8.30;99.90;;;;;;4997925;28;20185;-86
2022/09/20 00:06:18;;;;;;;4.00;2.50;;;8.20;99.90;;;;;;5001028;28;20202;-86
2022/09/20 00:08:45;;;;;;;4.37;2.60;;;8.20;99.90;;;;;;5011100;28;20256;-86
2022/09/20 00:11:18;;;;;;;5.17;2.57;;;8.20;99.90;;;;;;4994599;28;20558;-87
2022/09/20 00:13:46;;;;;;;4.67;2.40;;;8.10;99.90;;;;;;5018564;28;20186;-86
2022/09/20 00:16:16;;;;;;;4.50;2.50;;;7.90;99.90;;;;;;5007381;28;20230;-86
2022/09/20 00:18:42;;;;;;;4.37;2.80;;;7.80;99.90;;;;;;4998131;28;20190;-86
2022/09/20 00:21:16;;;;;;;3.77;2.43;;;7.80;99.90;;;;;;4984896;28;20261;-86
2022/09/20 00:23:41;;;;;;;5.63;2.60;;;7.70;99.90;;;;;;4982931;28;20186;-86
2022/09/20 00:26:07;;;;;;;4.03;2.33;;;7.80;99.90;;;;;;4999306;28;20209;-86
2022/09/20 00:28:33;;;;;;;3.93;2.43;;;7.80;99.90;;;;;;5007301;28;20202;-86
2022/09/20 00:30:59;;;;;;;8.93;3.20;;;7.80;99.90;;;;;;5014937;28;20309;-86
2022/09/20 00:35:06;;;;;;;5.40;2.60;;;7.80;99.90;;;;;;4999455;28;20178;-86
2022/09/20 00:36:12;;;;;;;7.17;2.97;;;7.70;99.90;;;;;;5009454;28;20216;-86
2022/09/20 00:38:37;;;;;;;4.73;2.70;;;7.70;99.90;;;;;;4999478;28;20197;-86
2022/09/20 00:41:03;;;;;;;2.30;2.10;;;7.60;99.90;;;;;;4989543;28;20189;-85
2022/09/20 00:43:44;;;;;;;3.33;2.10;;;7.60;99.90;;;;;;4995229;28;20226;-86
2022/09/20 00:46:28;;;;;;;4.00;2.23;;;7.30;99.90;;;;;;4981868;28;20896;-86
2022/09/20 00:49:24;;;;;;;5.87;2.60;;;7.30;99.90;;;;;;4998671;28;20197;-86
2022/09/20 00:52:01;;;;;;;3.67;2.60;;;7.20;99.90;;;;;;4998773;28;20278;-86
2022/09/20 00:54:29;;;;;;;3.60;2.27;;;7.10;99.90;;;;;;4979405;28;20218;-86
2022/09/20 00:56:55;;;;;;;4.93;2.63;;;7.00;99.90;;;;;;4996144;28;20221;-86
2022/09/20 00:59:38;;;;;;;7.10;2.70;;;7.00;99.90;;;;;;4979268;28;20182;-86
2022/09/20 01:02:30;;;;;;;5.50;2.70;;;7.10;99.90;;;;;;5010332;28;20188;-86
2022/09/20 01:04:57;;;;;;;8.23;2.90;;;7.20;99.90;;;;;;5020615;28;20214;-86
2022/09/20 01:07:24;;;;;;;5.10;2.77;;;7.30;99.90;;;;;;4987512;28;20185;-86
2022/09/20 01:09:50;;;;;;;5.00;2.60;;;7.30;99.90;;;;;;5004005;28;20320;-86
2022/09/20 01:12:28;;;;;;;3.57;2.23;;;7.30;99.90;;;;;;4994376;28;20181;-86
2022/09/20 01:14:55;;;;;;;5.53;2.50;;;7.30;99.90;;;;;;4998816;28;20223;-86
2022/09/20 01:17:26;;;;;;;6.10;2.67;;;7.40;99.90;;;;;;4997428;28;20247;-86
2022/09/20 01:20:07;;;;;;;5.77;2.47;;;7.30;99.90;;;;;;5013286;28;20182;-86
2022/09/20 01:22:39;;;;;;;5.57;2.40;;;7.30;99.90;;;;;;4986038;28;20213;-86
2022/09/20 01:25:35;;;;;;;5.03;2.60;;;7.30;99.90;;;;;;4997844;28;20240;-86
2022/09/20 01:28:01;;;;;;;9.70;2.87;;;7.30;99.90;;;;;;4994185;28;20220;-86
2022/09/20 01:30:45;;;;;;;6.90;2.50;;;7.20;99.90;;;;;;5014569;28;20216;-86
2022/09/20 01:33:28;;;;;;;3.83;2.57;;;7.10;99.90;;;;;;5005703;28;20683;-86
2022/09/20 01:36:00;;;;;;;6.80;2.77;;;7.10;99.90;;;;;;4996776;28;20230;-86
2022/09/20 01:38:45;;;;;;;6.33;3.10;;;7.10;99.90;;;;;;4998234;28;20178;-86
2022/09/20 01:41:21;;;;;;;5.33;2.33;;;7.00;99.90;;;;;;4994687;28;20243;-86
2022/09/20 01:43:57;;;;;;;3.33;2.50;;;6.90;99.90;;;;;;4997822;28;20216;-86
2022/09/20 01:46:32;;;;;;;3.63;2.60;;;6.90;99.90;;;;;;5009644;28;20301;-86
2022/09/20 01:49:14;;;;;;;3.27;2.33;;;6.90;99.90;;;;;;4995526;28;20193;-86
2022/09/20 01:52:01;;;;;;;5.33;2.53;;;6.90;99.90;;;;;;4993853;28;20213;-86
2022/09/20 01:55:04;;;;;;;6.80;2.90;;;7.00;99.90;;;;;;4998251;28;20218;-86
2022/09/20 01:57:45;;;;;;;6.53;2.80;;;7.10;99.90;;;;;;4981714;28;20179;-86
2022/09/20 02:00:15;;;;;;;5.70;2.60;;;7.20;99.90;;;;;;5012927;28;20188;-86
2022/09/20 02:03:17;;;;;;;5.30;2.60;;;7.30;99.90;;;;;;4987928;28;20185;-86
2022/09/20 02:06:13;;;;;;;4.17;2.90;;;7.40;99.90;;;;;;4997421;28;20248;-86
2022/09/20 02:08:54;;;;;;;5.23;3.10;;;7.40;99.90;;;;;;4962562;28;20205;-86
2022/09/20 02:11:35;;;;;;;3.83;2.80;;;7.50;99.90;;;;;;4978611;28;20185;-86
2022/09/20 02:14:40;;;;;;;4.80;2.40;;;7.50;99.90;;;;;;4977978;28;20205;-86
2022/09/20 02:17:31;;;;;;;4.30;2.80;;;7.60;99.90;;;;;;4994303;28;20259;-86
2022/09/20 02:20:12;;;;;;;8.13;3.47;;;7.70;99.90;;;;;;4984654;28;20228;-86
2022/09/20 02:22:51;;;;;;;6.43;2.67;;;7.70;99.90;;;;;;4980628;28;20544;-86
2022/09/20 02:25:33;;;;;;;4.13;2.70;;;7.70;99.90;;;;;;5017398;28;20203;-86
2022/09/20 02:28:37;;;;;;;5.63;2.47;;;7.70;99.90;;;;;;4997746;28;20202;-86
2022/09/20 02:31:27;;;;;;;4.93;2.77;;;7.70;99.90;;;;;;4998391;28;20337;-85
2022/09/20 02:34:25;;;;;;;6.23;2.33;;;7.70;99.90;;;;;;4994381;28;20198;-86
2022/09/20 02:37:12;;;;;;;4.43;2.47;;;7.70;99.90;;;;;;4989595;28;20653;-86
2022/09/20 02:39:56;;;;;;;2.70;2.47;;;7.60;99.90;;;;;;4994417;28;20281;-86
2022/09/20 02:42:43;;;;;;;4.40;2.70;;;7.70;99.90;;;;;;4985711;28;20186;-86
2022/09/20 02:45:14;;;;;;;5.60;2.77;;;7.70;99.90;;;;;;4996633;28;20217;-86
2022/09/20 02:47:44;;;;;;;4.83;2.60;;;7.70;99.90;;;;;;5009077;28;20198;-86
2022/09/20 02:50:16;;;;;;;3.60;2.40;;;7.60;99.90;;;;;;4978613;28;20277;-86
2022/09/20 02:53:17;;;;;;;8.40;2.73;;;7.50;99.90;;;;;;5005724;28;20177;-86
2022/09/20 02:56:01;;;;;;;5.67;2.90;;;7.40;99.90;;;;;;4975609;28;20244;-86
2022/09/20 02:58:30;;;;;;;3.83;2.70;;;7.40;99.90;;;;;;5011784;28;20642;-85
2022/09/20 03:01:16;;;;;;;6.43;2.67;;;7.40;99.90;;;;;;4996519;28;20181;-86
2022/09/20 03:03:54;;;;;;;6.53;2.67;;;7.40;99.90;;;;;;4993282;28;20190;-86
2022/09/20 03:06:35;;;;;;;4.10;2.70;;;7.30;99.90;;;;;;4996878;28;20622;-86
2022/09/20 03:09:04;;;;;;;3.97;2.60;;;7.30;99.90;;;;;;4996006;28;20186;-86
2022/09/20 03:11:43;;;;;;;4.03;2.30;;;7.30;99.90;;;;;;4980919;28;20187;-86
2022/09/20 03:14:23;;;;;;;5.67;3.23;;;7.20;99.90;;;;;;4995980;28;20191;-86
2022/09/20 03:17:05;;;;;;;3.10;2.00;;;7.20;99.90;;;;;;4996100;28;20196;-86
2022/09/20 03:19:32;;;;;;;3.60;2.50;;;7.20;99.90;;;;;;4993906;28;20185;-86
2022/09/20 03:22:27;;;;;;;5.33;2.40;;;7.10;99.90;;;;;;4978262;28;20243;-86
2022/09/20 03:25:20;;;;;;;5.60;2.43;;;7.10;99.90;;;;;;5011823;28;20213;-86
2022/09/20 03:28:02;;;;;;;4.67;2.30;;;7.10;99.90;;;;;;4993903;28;20200;-86
2022/09/20 03:30:47;;;;;;;6.63;2.60;;;7.10;99.90;;;;;;4986052;28;20176;-86
2022/09/20 03:33:34;;;;;;;9.87;2.90;;;7.20;99.90;;;;;;4996041;28;20260;-86
2022/09/20 03:36:25;;;;;;;5.87;2.40;;;7.20;99.90;;;;;;4983291;28;20283;-86
2022/09/20 03:39:04;;;;;;;3.50;2.57;;;7.20;99.90;;;;;;5011201;28;20184;-85
2022/09/20 03:41:38;;;;;;;5.23;2.63;;;7.10;99.90;;;;;;4977074;28;20192;-86
2022/09/20 03:44:42;;;;;;;5.37;2.60;;;7.10;99.90;;;;;;4983389;28;20238;-87
2022/09/20 03:47:23;;;;;;;4.03;2.40;;;7.10;99.90;;;;;;5007986;28;20195;-86
2022/09/20 03:50:21;;;;;;;4.50;2.47;;;7.10;99.90;;;;;;5014670;28;20182;-86
2022/09/20 03:53:40;;;;;;;7.90;2.63;;;7.20;99.90;;;;;;4985832;28;20182;-86
2022/09/20 03:56:15;;;;;;;3.27;2.50;;;7.20;99.90;;;;;;4898950;29;20201;-86
2022/09/20 03:58:44;;;;;;;5.03;2.70;;;7.30;99.90;;;;;;4914870;29;20654;-86
2022/09/20 04:01:45;;;;;;;7.20;2.53;;;7.40;99.90;;;;;;4965914;28;20268;-86
2022/09/20 04:04:22;;;;;;;4.87;2.53;;;7.40;99.90;;;;;;4991506;28;20211;-86
2022/09/20 04:07:32;;;;;;;4.90;2.27;;;7.50;99.90;;;;;;4983614;28;20173;-86
2022/09/20 04:10:14;;;;;;;4.57;2.77;;;7.50;99.90;;;;;;4999809;28;20172;-86
2022/09/20 04:13:16;;;;;;;5.37;2.83;;;7.50;99.90;;;;;;4998589;28;20230;-85
2022/09/20 04:16:05;;;;;;;5.47;2.67;;;7.50;99.90;;;;;;4980683;28;20202;-86
2022/09/20 04:19:03;;;;;;;3.30;2.60;;;7.50;99.90;;;;;;5028387;28;20194;-86
2022/09/20 04:21:41;;;;;;;5.33;2.80;;;7.50;99.90;;;;;;4999412;28;20198;-86
2022/09/20 04:24:25;;;;;;;5.87;3.20;;;7.50;99.90;;;;;;4999371;28;20219;-86
2022/09/20 04:27:12;;;;;;;8.73;3.30;;;7.50;99.90;;;;;;4998919;28;20227;-86
2022/09/20 04:29:57;;;;;;;4.40;3.13;;;7.50;99.90;;;;;;5003787;28;20181;-86
2022/09/20 04:32:35;;;;;;;6.20;3.60;;;7.40;99.90;;;;;;4980375;28;20180;-86
2022/09/20 04:38:21;;;;;;;6.00;3.37;;;7.40;99.90;;;;;;4999613;28;20182;-86
2022/09/20 04:41:07;;;;;;;5.90;3.17;;;7.40;99.90;;;;;;4987733;28;20189;-85
2022/09/20 04:43:49;;;;;;;4.83;2.70;;;7.40;99.90;;;;;;5016092;28;20182;-86
2022/09/20 04:46:51;;;;;;;4.20;2.40;;;7.40;99.90;;;;;;5003362;28;20265;-84
2022/09/20 04:49:46;;;;;;;7.03;3.10;;;7.40;99.90;;;;;;4987752;28;20567;-86
2022/09/20 04:52:36;;;;;;;5.50;2.80;;;7.50;99.90;;;;;;5001637;28;20319;-87
2022/09/20 04:55:39;;;;;;;6.63;3.40;;;7.50;99.90;;;;;;4994289;28;20209;-86
2022/09/20 04:58:23;;;;;;;4.87;3.17;;;7.40;99.90;;;;;;5013865;28;20236;-87
2022/09/20 05:01:16;;;;;;;5.20;2.57;;;7.50;99.90;;;;;;5025322;28;20188;-87
2022/09/20 05:04:35;;;;;;;7.73;2.93;;;7.50;99.90;;;;;;4979792;28;20240;-86
2022/09/20 05:07:24;;;;;;;8.07;3.00;;;7.50;99.90;;;;;;4952584;28;20183;-86
2022/09/20 05:10:18;;;;;;;4.53;2.80;;;7.50;99.90;;;;;;5014166;28;20181;-87
2022/09/20 05:12:53;;;;;;;6.70;2.70;;;7.50;99.90;;;;;;4989050;28;20272;-87
2022/09/20 05:15:48;;;;;;;4.53;2.47;;;7.50;99.90;;;;;;5009613;28;20264;-92
2022/09/20 05:18:47;;;;;;;3.17;2.37;;;7.50;99.90;;;;;;5019992;28;20193;-86
2022/09/20 05:21:33;;;;;;;4.23;2.30;;;7.40;99.90;;;;;;5020682;28;20225;-86
2022/09/20 05:24:20;;;;;;;4.03;2.90;;;7.40;99.90;;;;;;5020585;28;20191;-86
2022/09/20 05:27:01;;;;;;;8.03;4.03;;;7.40;99.90;;;;;;5020554;28;20177;-87
2022/09/20 05:29:36;;;;;;;10.20;5.70;;;7.40;99.90;;;;;;5037081;28;20177;-86
2022/09/20 05:32:24;;;;;;;7.77;4.47;;;7.40;99.90;;;;;;5034639;28;20266;-86
2022/09/20 05:35:03;;;;;;;6.00;3.00;;;7.40;99.90;;;;;;4999791;28;20625;-92
2022/09/20 05:38:01;;;;;;;7.33;3.10;;;7.40;99.90;;;;;;5000229;28;20193;-86
2022/09/20 05:44:11;;;;;;;7.47;2.80;;;7.50;99.90;;;;;;5012257;28;20188;-86
2022/09/20 05:47:02;;;;;;;7.60;2.93;;;7.60;99.90;;;;;;5001981;28;20209;-86
2022/09/20 05:50:04;;;;;;;5.23;2.97;;;7.60;99.90;;;;;;4997493;28;20186;-86
2022/09/20 05:53:02;;;;;;;5.30;2.50;;;7.70;99.90;;;;;;4996385;28;20181;-86
2022/09/20 05:55:46;;;;;;;4.17;2.30;;;7.70;99.90;;;;;;5013155;28;20280;-86
2022/09/20 05:58:37;;;;;;;7.37;2.87;;;7.70;99.90;;;;;;5016583;28;20208;-86
2022/09/20 06:01:08;;;;;;;7.13;2.90;;;7.70;99.90;;;;;;4996947;28;20196;-86
2022/09/20 06:03:53;;;;;;;9.93;3.30;;;7.70;99.90;;;;;;5011274;28;20187;-86
2022/09/20 06:06:53;;;;;;;5.53;3.13;;;7.70;99.90;;;;;;4996699;28;20224;-86
2022/09/20 06:09:38;;;;;;;6.33;2.60;;;7.70;99.90;;;;;;4996419;28;20183;-86
2022/09/20 06:12:34;;;;;;;5.00;2.77;;;7.80;99.90;;;;;;4996003;28;20183;-86
2022/09/20 06:15:32;;;;;;;8.37;3.33;;;7.80;99.90;;;;;;5010842;28;20203;-86
2022/09/20 06:18:12;;;;;;;6.43;3.50;;;7.80;99.90;;;;;;4996457;28;20192;-86
2022/09/20 06:20:46;;;;;;;7.63;3.67;;;7.80;99.90;;;;;;4978256;28;20186;-86
2022/09/20 06:23:14;;;;;;;6.70;3.50;;;7.90;99.90;;;;;;4996799;28;20244;-86
2022/09/20 06:25:56;;;;;;;5.77;4.00;;;7.90;99.90;;;;;;5007710;28;20215;-86
2022/09/20 06:28:48;;;;;;;5.43;3.90;;;7.90;99.90;;;;;;4978446;28;20189;-86
2022/09/20 06:31:15;;;;;;;6.53;3.57;;;7.90;99.90;;;;;;4998728;28;20183;-86
2022/09/20 06:33:56;;;;;;;6.97;3.57;;;7.90;99.90;;;;;;5013982;28;20177;-86
2022/09/20 06:42:20;;;;;;;4.60;3.37;;;8.10;99.90;;;;;;4993164;28;20186;-86
2022/09/20 06:44:48;;;;;;;6.07;3.37;;;8.10;99.90;;;;;;4992415;28;20244;-87
2022/09/20 06:47:17;;;;;;;6.53;4.50;;;8.10;99.90;;;;;;4995860;28;20200;-86
2022/09/20 06:49:45;;;;;;;6.73;4.27;;;8.10;99.90;;;;;;4996226;28;20205;-86
2022/09/20 06:52:17;;;;;;;7.93;3.53;;;8.20;99.90;;;;;;4996922;28;20261;-86
2022/09/20 06:54:53;;;;;;;4.30;3.17;;;8.30;99.90;;;;;;4997211;28;20209;-86
2022/09/20 06:57:32;;;;;;;6.97;3.53;;;8.30;99.90;;;;;;5013344;28;20189;-86
2022/09/20 06:59:58;;;;;;;6.30;3.87;;;8.40;99.90;;;;;;4997183;28;20178;-86
2022/09/20 07:02:25;;;;;;;7.30;3.53;;;8.40;99.90;;;;;;4996935;28;20244;-86
2022/09/20 07:04:54;;;;;;;3.30;2.90;;;8.40;99.90;;;;;;5012966;28;20210;-86
2022/09/20 07:07:20;;;;;;;5.17;3.17;;;8.50;99.90;;;;;;4996637;28;20673;-86
2022/09/20 07:09:47;;;;;;;5.43;2.93;;;8.50;99.90;;;;;;4996505;28;20264;-86
2022/09/20 07:12:14;;;;;;;5.53;2.70;;;8.60;99.90;;;;;;5012919;28;20196;-86
2022/09/20 07:14:41;;;;;;;6.80;2.70;;;8.60;99.90;;;;;;4996741;28;20206;-86
2022/09/20 07:17:08;;;;;;;3.40;2.30;;;8.70;99.90;;;;;;4998808;28;20211;-86
2022/09/20 07:19:35;;;;;;;4.63;2.50;;;8.70;99.90;;;;;;5016588;28;20178;-86
2022/09/20 07:22:02;;;;;;;5.20;3.10;;;8.70;99.90;;;;;;5016315;28;20182;-86
2022/09/20 07:24:32;;;;;;;3.93;2.60;;;8.80;99.90;;;;;;5015687;28;20256;-86
2022/09/20 07:27:03;;;;;;;7.17;2.90;;;8.80;99.90;;;;;;5032463;28;20247;-86
2022/09/20 07:29:34;;;;;;;5.67;3.03;;;8.90;99.90;;;;;;5016154;28;20196;-86
2022/09/20 07:32:00;;;;;;;6.07;3.87;;;8.90;99.90;;;;;;5050496;28;20178;-86
2022/09/20 07:34:26;;;;;;;5.83;3.80;;;9.00;99.90;;;;;;5016350;28;20204;-86
2022/09/20 07:36:52;;;;;;;6.87;3.10;;;9.00;99.90;;;;;;5050239;28;20181;-86
2022/09/20 07:39:19;;;;;;;7.63;2.97;;;9.10;99.90;;;;;;5017607;28;20560;-86
2022/09/20 07:41:47;;;;;;;6.30;3.03;;;9.20;99.90;;;;;;5019985;28;20201;-86
2022/09/20 07:44:20;;;;;;;6.37;2.70;;;9.20;99.90;;;;;;5020168;28;20299;-86
2022/09/20 07:46:51;;;;;;;6.63;3.83;;;9.20;99.90;;;;;;5019969;28;20189;-86
2022/09/20 07:49:18;;;;;;;6.77;2.90;;;9.20;99.90;;;;;;4997022;28;20198;-86
2022/09/20 07:51:45;;;;;;;6.07;3.10;;;9.10;99.90;;;;;;4997040;28;20682;-86
2022/09/20 07:54:12;;;;;;;4.93;2.77;;;9.10;99.90;;;;;;4996888;28;20191;-86
2022/09/20 07:56:38;;;;;;;6.73;3.20;;;9.20;99.90;;;;;;4997394;28;20182;-86
2022/09/20 07:59:06;;;;;;;4.60;3.00;;;9.40;99.90;;;;;;4981066;28;20210;-86
2022/09/20 08:01:35;;;;;;;6.47;2.90;;;9.60;99.90;;;;;;4996283;28;20187;-86
2022/09/20 08:04:07;;;;;;;4.73;3.27;;;9.80;99.90;;;;;;4996560;28;20323;-86
2022/09/20 08:06:39;;;;;;;8.43;2.90;;;10.10;99.90;;;;;;4980859;28;20207;-87
2022/09/20 08:09:06;;;;;;;5.27;2.90;;;10.30;99.90;;;;;;4980472;28;20229;-86
2022/09/20 08:11:35;;;;;;;7.93;3.23;;;10.40;99.90;;;;;;4997041;28;20179;-86
2022/09/20 08:14:02;;;;;;;8.53;3.00;;;10.50;99.90;;;;;;4980516;28;20179;-86
2022/09/20 08:16:30;;;;;;;11.73;3.53;;;10.50;99.90;;;;;;4980152;28;20239;-87
2022/09/20 08:18:59;;;;;;;9.37;4.10;;;10.60;99.90;;;;;;5013270;28;20179;-86
2022/09/20 08:21:30;;;;;;;7.73;3.03;;;10.80;99.90;;;;;;5016069;28;20191;-86
2022/09/20 08:23:58;;;;;;;6.60;3.30;;;10.90;99.90;;;;;;5016130;28;20193;-86
2022/09/20 08:26:26;;;;;;;6.57;2.90;;;11.00;99.90;;;;;;5019736;28;20199;-87
2022/09/20 08:28:55;;;;;;;7.70;3.80;;;11.20;99.90;;;;;;5041161;28;20190;-87
2022/09/20 08:31:25;;;;;;;9.33;3.57;;;11.40;99.90;;;;;;5000222;28;20182;-87
2022/09/20 08:33:54;;;;;;;10.10;3.80;;;11.50;99.90;;;;;;4999577;28;20198;-87
2022/09/20 08:36:23;;;;;;;6.83;3.10;;;11.60;99.90;;;;;;4999084;28;20210;-87
2022/09/20 08:38:50;;;;;;;5.97;3.33;;;11.70;99.90;;;;;;4999124;28;20183;-87
2022/09/20 08:41:18;;;;;;;6.20;3.27;;;11.90;99.90;;;;;;5015808;28;20261;-86
2022/09/20 08:43:50;;;;;;;5.60;3.10;;;12.10;99.90;;;;;;4999120;28;20182;-87
2022/09/20 08:46:21;;;;;;;7.90;3.30;;;12.30;99.90;;;;;;4999179;28;20339;-87
2022/09/20 08:48:47;;;;;;;6.07;3.10;;;12.40;99.90;;;;;;4999274;28;20687;-87
2022/09/20 08:51:15;;;;;;;6.03;3.10;;;12.50;99.90;;;;;;5015073;28;20177;-86
2022/09/20 08:53:48;;;;;;;5.93;3.23;;;12.70;99.90;;;;;;4999489;28;20246;-87
2022/09/20 08:56:16;;;;;;;5.30;3.03;;;12.80;99.90;;;;;;4998934;28;20217;-87
2022/09/20 08:58:45;;;;;;;5.63;3.27;;;13.10;99.90;;;;;;4999180;28;20180;-87
2022/09/20 09:01:24;;;;;;;7.73;2.97;;;13.10;99.90;;;;;;4999261;28;20184;-88
2022/09/20 09:03:52;;;;;;;9.20;2.97;;;13.20;99.90;;;;;;4999125;28;20698;-87
2022/09/20 09:06:23;;;;;;;7.17;2.83;;;13.40;99.90;;;;;;5015753;28;20203;-87
2022/09/20 09:08:52;;;;;;;5.63;2.60;;;13.50;99.90;;;;;;5015409;28;20183;-87
2022/09/20 09:11:22;;;;;;;5.07;2.80;;;13.60;99.90;;;;;;4999322;28;20660;-87
2022/09/20 09:14:56;;;;;;;5.77;2.80;;;13.70;99.90;;;;;;4998696;28;20188;-87
2022/09/20 09:16:59;;;;;;;4.00;1.90;;;13.90;99.90;;;;;;5022546;28;20203;-87
2022/09/20 09:19:30;;;;;;;6.40;2.30;;;14.20;99.90;;;;;;5015778;28;20186;-87
2022/09/20 09:22:03;;;;;;;4.67;1.90;;;14.40;99.90;;;;;;4999368;28;20252;-87
2022/09/20 09:24:32;;;;;;;5.40;2.03;;;14.70;99.90;;;;;;4999795;28;20304;-87
2022/09/20 09:27:12;;;;;;;5.10;2.10;;;14.70;99.90;;;;;;4998921;28;20281;-87
2022/09/20 09:29:52;;;;;;;8.83;2.00;;;14.90;99.90;;;;;;5015225;28;20253;-86
2022/09/20 09:32:31;;;;;;;5.37;2.13;;;14.90;99.90;;;;;;5003264;28;20281;-87
2022/09/20 09:35:35;;;;;;;4.00;2.10;;;14.90;99.90;;;;;;5014716;28;20209;-88
2022/09/20 09:38:01;;;;;;;4.27;1.63;;;15.00;99.90;;;;;;4976850;28;20262;-87
2022/09/20 09:40:34;;;;;;;4.77;1.80;;;14.80;99.90;;;;;;4980432;28;20274;-87
2022/09/20 09:43:01;;;;;;;4.57;1.70;;;14.80;99.90;;;;;;4981260;28;20178;-87
2022/09/20 09:45:37;;;;;;;5.93;1.80;;;14.80;99.90;;;;;;4980943;28;20300;-87
2022/09/20 09:48:23;;;;;;;4.57;1.50;;;15.00;99.90;;;;;;5013251;28;20182;-87
2022/09/20 09:50:49;;;;;;;2.50;1.30;;;15.10;99.90;;;;;;5001993;28;20171;-87
2022/09/20 09:53:20;;;;;;;4.57;1.53;;;15.40;99.90;;;;;;4996275;28;20265;-88
2022/09/20 09:56:31;;;;;;;3.10;1.43;;;15.60;99.90;;;;;;5017455;28;20206;-88
2022/09/20 09:59:37;;;;;;;7.17;1.70;;;15.70;99.90;;;;;;5000313;28;20183;-88
2022/09/20 10:02:11;;;;;;;3.43;1.40;;;15.80;99.90;;;;;;5024724;28;20179;-87
2022/09/20 10:04:56;;;;;;;4.10;1.50;;;15.60;99.90;;;;;;5023400;28;20194;-87
2022/09/20 10:07:42;;;;;;;8.17;1.60;;;15.70;99.90;;;;;;4994746;28;20171;-88
2022/09/20 10:10:46;;;;;;;5.00;1.60;;;15.80;99.90;;;;;;4996537;28;20266;-88
2022/09/20 10:13:30;;;;;;;2.13;1.47;;;15.90;99.90;;;;;;5011278;28;20178;-88
2022/09/20 10:16:16;;;;;;;4.50;1.80;;;15.80;99.90;;;;;;5012911;28;20289;-88
2022/09/20 10:19:05;;;;;;;3.67;1.30;;;15.70;99.90;;;;;;5019715;28;20178;-88
2022/09/20 10:21:52;;;;;;;5.17;1.60;;;15.50;99.90;;;;;;4983480;28;20191;-88
2022/09/20 10:25:02;;;;;;;2.20;1.30;;;15.30;99.90;;;;;;5017560;28;20178;-87
2022/09/20 10:27:34;;;;;;;3.73;1.57;;;15.20;99.90;;;;;;5016199;28;20193;-88
2022/09/20 10:30:13;;;;;;;4.03;1.20;;;15.10;99.90;;;;;;5010489;28;20321;-87
2022/09/20 10:32:52;;;;;;;2.37;1.30;;;15.00;99.90;;;;;;5016576;28;20213;-88
2022/09/20 10:35:44;;;;;;;5.37;1.60;;;15.10;99.90;;;;;;4996336;28;20221;-87
2022/09/20 10:38:33;;;;;;;4.80;1.43;;;14.90;99.90;;;;;;4982342;28;20188;-87
2022/09/20 10:44:09;;;;;;;3.47;1.20;;;14.90;99.90;;;;;;4995415;28;20194;-87
2022/09/20 10:47:01;;;;;;;3.50;1.30;;;15.00;99.90;;;;;;4979800;28;20288;-88
2022/09/20 10:49:42;;;;;;;4.40;1.37;;;14.80;99.90;;;;;;5015714;28;20173;-87
2022/09/20 10:52:34;;;;;;;5.20;1.40;;;14.70;99.90;;;;;;4995571;28;20277;-87
2022/09/20 10:58:31;;;;;;;2.90;1.30;;;14.60;99.90;;;;;;5015795;28;20181;-87
2022/09/20 11:01:01;;;;;;;6.07;1.83;;;14.60;99.90;;;;;;4999019;28;20190;-87
2022/09/20 11:03:41;;;;;;;2.83;1.27;;;14.70;99.90;;;;;;5015440;28;20178;-88
2022/09/20 11:06:22;;;;;;;4.50;1.10;;;14.60;99.90;;;;;;4999470;28;20202;-87
2022/09/20 11:08:58;;;;;;;2.80;1.00;;;14.80;99.90;;;;;;5012077;28;20182;-88
2022/09/20 11:11:46;;;;;;;2.67;1.10;;;14.80;99.90;;;;;;4998617;28;20167;-87
2022/09/20 11:14:31;;;;;;;2.50;0.90;;;14.90;99.90;;;;;;4998337;28;20183;-88
2022/09/20 11:17:11;;;;;;;4.20;1.27;;;14.80;99.90;;;;;;4998846;28;20170;-87
2022/09/20 11:19:59;;;;;;;3.90;1.10;;;14.80;99.90;;;;;;4999288;28;20169;-87
2022/09/20 11:22:43;;;;;;;6.80;1.50;;;14.80;99.90;;;;;;4999335;28;20190;-87
2022/09/20 11:25:15;;;;;;;4.00;1.27;;;14.80;99.90;;;;;;4998888;28;20288;-87
2022/09/20 11:27:50;;;;;;;6.27;1.87;;;14.80;99.90;;;;;;4998229;28;20218;-88
2022/09/20 11:30:21;;;;;;;3.63;1.30;;;14.80;99.90;;;;;;4998860;28;20162;-87
2022/09/20 11:33:22;;;;;;;2.27;1.10;;;14.90;99.90;;;;;;4998771;28;20186;-87
2022/09/20 11:35:53;;;;;;;3.03;1.23;;;15.00;99.90;;;;;;4998875;28;20296;-87
2022/09/20 11:38:28;;;;;;;2.83;1.30;;;15.00;99.90;;;;;;5014967;28;20174;-87
2022/09/20 11:41:22;;;;;;;3.00;1.33;;;15.00;99.90;;;;;;4998677;28;20182;-88
2022/09/20 11:43:49;;;;;;;2.87;1.10;;;15.00;99.90;;;;;;5015263;28;20642;-87
2022/09/20 11:46:28;;;;;;;1.73;1.20;;;14.80;99.90;;;;;;4998343;28;20280;-88
2022/09/20 11:49:04;;;;;;;4.50;1.23;;;14.80;99.90;;;;;;5015098;28;20171;-87
2022/09/20 11:51:49;;;;;;;4.03;1.50;;;14.80;99.90;;;;;;4991238;28;20195;-88
2022/09/20 11:54:31;;;;;;;5.80;1.60;;;14.60;99.90;;;;;;4979277;28;20190;-87
2022/09/20 11:56:58;;;;;;;2.47;1.33;;;14.40;99.90;;;;;;4979777;28;20708;-87
2022/09/20 11:59:35;;;;;;;3.83;1.50;;;14.50;99.90;;;;;;4998296;28;20260;-87
2022/09/20 12:02:16;;;;;;;3.73;1.47;;;14.60;99.90;;;;;;4997879;28;20182;-88
2022/09/20 12:04:45;;;;;;;4.40;1.33;;;14.70;99.90;;;;;;4998403;28;20226;-87
2022/09/20 12:07:24;;;;;;;5.53;1.37;;;14.80;99.90;;;;;;4997825;28;20190;-87
2022/09/20 12:09:59;;;;;;;5.77;1.40;;;15.10;99.90;;;;;;4995955;28;20230;-87
2022/09/20 12:12:31;;;;;;;3.97;1.30;;;15.50;99.90;;;;;;4998292;28;20199;-87
2022/09/20 12:15:00;;;;;;;2.60;1.47;;;15.80;99.90;;;;;;5004994;28;20207;-87
2022/09/20 12:17:45;;;;;;;2.77;1.40;;;15.90;99.90;;;;;;4996775;28;20210;-88
2022/09/20 12:20:34;;;;;;;3.47;1.20;;;15.90;99.90;;;;;;5004373;28;20271;-88
2022/09/20 12:23:41;;;;;;;5.87;1.50;;;15.80;99.90;;;;;;4993451;28;20345;-88
2022/09/20 12:26:14;;;;;;;3.60;1.30;;;15.70;99.90;;;;;;4988813;28;20211;-88
2022/09/20 12:28:48;;;;;;;1.43;1.13;;;15.70;99.90;;;;;;5010958;28;20170;-87
2022/09/20 12:31:17;;;;;;;5.03;1.50;;;15.60;99.90;;;;;;5000765;28;21251;-88
2022/09/20 12:34:00;;;;;;;3.40;1.10;;;15.70;99.90;;;;;;5015401;28;20222;-88
2022/09/20 12:36:28;;;;;;;1.50;1.20;;;15.80;99.90;;;;;;4998538;28;20268;-88
2022/09/20 12:39:03;;;;;;;4.63;1.07;;;15.90;99.90;;;;;;4998602;28;20180;-88
2022/09/20 12:41:49;;;;;;;3.20;1.30;;;16.20;99.90;;;;;;5022331;28;20181;-88
2022/09/20 12:44:23;;;;;;;2.00;1.10;;;16.30;99.90;;;;;;4998229;28;20167;-87
2022/09/20 12:47:00;;;;;;;2.07;1.00;;;16.30;99.90;;;;;;5017732;28;20197;-88
2022/09/20 12:53:05;;;;;;;3.73;1.10;;;16.90;99.90;;;;;;4993343;28;20183;-88
2022/09/20 12:56:04;;;;;;;2.17;1.17;;;17.30;99.90;;;;;;5001101;28;20206;-88
2022/09/20 12:58:51;;;;;;;2.97;1.30;;;17.50;99.90;;;;;;5018208;28;20182;-88
2022/09/20 13:01:17;;;;;;;5.80;1.20;;;17.50;99.90;;;;;;5016926;28;20178;-88
2022/09/20 13:03:49;;;;;;;2.60;1.20;;;17.40;99.90;;;;;;4999024;28;20202;-87
2022/09/20 13:06:16;;;;;;;3.00;0.97;;;16.90;99.90;;;;;;5014786;28;20214;-88
2022/09/20 13:09:12;;;;;;;3.43;1.20;;;16.90;99.90;;;;;;5031456;22;20234;-36
2022/09/20 13:11:53;;;;;;;5.77;1.00;;;16.60;99.90;;;;;;5025559;28;20233;-35
2022/09/20 13:14:25;;;;;;;4.83;1.30;;;16.40;99.90;;;;;;5017995;28;20261;-37
2022/09/20 13:16:58;;;;;;;3.50;1.50;;;16.30;99.90;;;;;;5016602;28;20182;-36
2022/09/20 13:19:28;;;;;;;3.57;1.40;;;16.40;99.90;;;;;;5052870;28;20257;-39
2022/09/20 13:22:00;;;;;;;4.00;1.43;;;16.30;99.90;;;;;;5052290;28;20198;-39
2022/09/20 13:24:41;;;;;;;4.77;2.07;;;16.40;99.90;;;;;;5024017;28;20181;-37
2022/09/20 13:27:48;;;;;;;4.07;1.43;;;16.40;99.90;;;;;;4998172;28;20216;-40
2022/09/20 13:30:35;;;;;;;1.50;1.10;;;16.60;99.90;;;;;;5003917;28;20190;-39
2022/09/20 13:33:23;;;;;;;1.90;1.10;;;17.00;99.90;;;;;;5028892;28;20189;-36
2022/09/20 13:35:53;;;;;;;2.93;1.37;;;17.30;99.90;;;;;;5029561;28;20205;-40
2022/09/20 13:38:21;;;;;;;2.60;1.13;;;17.60;99.90;;;;;;5045128;28;20273;-40
2022/09/20 13:40:49;;;;;;;2.30;1.13;;;17.60;99.90;;;;;;5047955;28;20256;-41
2022/09/20 13:43:30;;;;;;;2.17;1.00;;;17.60;99.90;;;;;;5028721;28;20188;-40
2022/09/20 13:46:07;;;;;;;2.50;1.20;;;17.40;99.90;;;;;;5028595;28;20272;-39
2022/09/20 13:48:33;;;;;;;4.07;1.20;;;17.30;99.90;;;;;;5030564;28;20193;-40
2022/09/20 13:50:59;;;;;;;2.47;1.70;;;17.20;99.90;;;;;;5014348;28;20237;-39
2022/09/20 13:53:27;;;;;;;2.87;1.00;;;17.20;99.90;;;;;;5011075;28;20213;-41
2022/09/20 13:55:54;;;;;;;3.97;1.33;;;17.10;99.90;;;;;;5027763;28;20230;-39
2022/09/20 13:58:32;;;;;;;5.10;1.47;;;17.10;99.90;;;;;;5034485;28;20227;-39
2022/09/20 14:01:04;;;;;;;1.43;1.13;;;17.00;99.90;;;;;;5026733;28;20205;-39
2022/09/20 14:03:33;;;;;;;3.53;1.33;;;17.00;99.90;;;;;;5013869;28;20186;-41
2022/09/20 14:06:00;;;;;;;4.07;1.92;;;16.90;99.90;;;;;;5044248;28;20185;-40
2022/09/20 14:08:46;;;;;;;2.30;1.30;;;16.90;99.90;;;;;;5032158;28;20203;-40
2022/09/20 14:11:26;;;;;;;2.67;1.00;;;16.80;99.90;;;;;;5028670;28;20206;-39
2022/09/20 14:13:55;;;;;;;3.83;1.10;;;16.90;99.90;;;;;;5013581;28;20174;-40
2022/09/20 14:16:39;;;;;;;2.70;1.33;;;16.90;99.90;;;;;;5059830;28;20201;-38